sensor_id;sensor_type;location;lat;lon;timestamp;pressure;altitude;pressure_sealevel;temperature;humidity
70323;BME280;57735;56.264;43.898;2022-07-29T00:02:16;100400.41;;;21.45;54.44
70323;BME280;57735;56.264;43.898;2022-07-29T00:04:47;100408.41;;;21.40;54.10
70323;BME280;57735;56.264;43.898;2022-07-29T00:07:18;100404.25;;;21.38;54.42
70323;BME280;57735;56.264;43.898;2022-07-29T00:09:56;100408.44;;;21.34;54.50
70323;BME280;57735;56.264;43.898;2022-07-29T00:12:27;100399.78;;;21.25;54.72
70323;BME280;57735;56.264;43.898;2022-07-29T00:14:58;100399.81;;;21.18;54.87
70323;BME280;57735;56.264;43.898;2022-07-29T00:17:28;100404.47;;;21.11;55.44
70323;BME280;57735;56.264;43.898;2022-07-29T00:20:02;100400.75;;;21.06;55.59
70323;BME280;57735;56.264;43.898;2022-07-29T00:22:37;100407.88;;;21.00;55.70
70323;BME280;57735;56.264;43.898;2022-07-29T00:25:08;100405.47;;;20.92;56.21
70323;BME280;57735;56.264;43.898;2022-07-29T00:27:46;100406.31;;;20.86;56.42
70323;BME280;57735;56.264;43.898;2022-07-29T00:30:17;100400.91;;;20.86;56.42
70323;BME280;57735;56.264;43.898;2022-07-29T00:32:48;100392.16;;;20.84;56.36
70323;BME280;57735;56.264;43.898;2022-07-29T00:35:21;100383.00;;;20.85;56.45
70323;BME280;57735;56.264;43.898;2022-07-29T00:38:15;100377.34;;;20.86;56.21
70323;BME280;57735;56.264;43.898;2022-07-29T00:40:46;100375.47;;;20.87;56.18
70323;BME280;57735;56.264;43.898;2022-07-29T00:43:17;100374.41;;;20.88;56.12
70323;BME280;57735;56.264;43.898;2022-07-29T00:45:48;100375.47;;;20.87;56.04
70323;BME280;57735;56.264;43.898;2022-07-29T00:48:22;100372.31;;;20.90;56.34
70323;BME280;57735;56.264;43.898;2022-07-29T00:51:00;100376.31;;;20.87;56.28
70323;BME280;57735;56.264;43.898;2022-07-29T00:53:32;100380.50;;;20.83;56.46
70323;BME280;57735;56.264;43.898;2022-07-29T00:56:03;100388.00;;;20.81;56.77
70323;BME280;57735;56.264;43.898;2022-07-29T00:58:36;100392.00;;;20.79;56.99
70323;BME280;57735;56.264;43.898;2022-07-29T01:01:07;100390.09;;;20.79;57.16
70323;BME280;57735;56.264;43.898;2022-07-29T01:03:38;100385.75;;;20.78;57.37
70323;BME280;57735;56.264;43.898;2022-07-29T01:06:09;100390.41;;;20.71;57.67
70323;BME280;57735;56.264;43.898;2022-07-29T01:08:40;100397.69;;;20.71;57.43
70323;BME280;57735;56.264;43.898;2022-07-29T01:11:11;100378.94;;;20.69;57.97
70323;BME280;57735;56.264;43.898;2022-07-29T01:13:43;100382.72;;;20.62;58.00
70323;BME280;57735;56.264;43.898;2022-07-29T01:16:36;100381.53;;;20.58;58.74
70323;BME280;57735;56.264;43.898;2022-07-29T01:19:45;100389.47;;;20.52;58.96
70323;BME280;57735;56.264;43.898;2022-07-29T01:22:37;100376.16;;;20.51;58.55
70323;BME280;57735;56.264;43.898;2022-07-29T01:30:56;100394.38;;;20.69;57.87
70323;BME280;57735;56.264;43.898;2022-07-29T01:33:27;100383.50;;;20.75;57.96
70323;BME280;57735;56.264;43.898;2022-07-29T01:36:30;100380.09;;;20.80;57.62
70323;BME280;57735;56.264;43.898;2022-07-29T01:40:04;100385.09;;;20.83;57.74
70323;BME280;57735;56.264;43.898;2022-07-29T01:42:26;100387.13;;;20.87;57.35
70323;BME280;57735;56.264;43.898;2022-07-29T01:50:34;100389.53;;;21.02;57.19
70323;BME280;57735;56.264;43.898;2022-07-29T01:53:10;100379.91;;;21.06;57.10
70323;BME280;57735;56.264;43.898;2022-07-29T01:55:45;100381.13;;;21.10;57.16
70323;BME280;57735;56.264;43.898;2022-07-29T01:58:20;100387.38;;;21.11;57.27
70323;BME280;57735;56.264;43.898;2022-07-29T02:00:59;100387.13;;;21.12;57.41
70323;BME280;57735;56.264;43.898;2022-07-29T02:03:32;100380.44;;;21.15;57.19
70323;BME280;57735;56.264;43.898;2022-07-29T02:06:05;100371.03;;;21.17;57.31
70323;BME280;57735;56.264;43.898;2022-07-29T02:08:38;100369.97;;;21.18;57.59
70323;BME280;57735;56.264;43.898;2022-07-29T02:11:09;100367.06;;;21.20;57.55
70323;BME280;57735;56.264;43.898;2022-07-29T02:13:44;100379.38;;;21.22;57.46
70323;BME280;57735;56.264;43.898;2022-07-29T02:16:17;100378.94;;;21.26;57.38
70323;BME280;57735;56.264;43.898;2022-07-29T02:18:53;100378.69;;;21.27;57.36
70323;BME280;57735;56.264;43.898;2022-07-29T02:21:26;100382.25;;;21.28;57.39
70323;BME280;57735;56.264;43.898;2022-07-29T02:24:00;100375.75;;;21.29;57.58
70323;BME280;57735;56.264;43.898;2022-07-29T02:26:33;100380.09;;;21.30;57.60
70323;BME280;57735;56.264;43.898;2022-07-29T02:29:04;100379.28;;;21.29;57.87
70323;BME280;57735;56.264;43.898;2022-07-29T02:31:38;100383.06;;;21.28;58.02
70323;BME280;57735;56.264;43.898;2022-07-29T02:34:12;100382.69;;;21.24;58.38
70323;BME280;57735;56.264;43.898;2022-07-29T02:36:47;100386.44;;;21.23;58.35
70323;BME280;57735;56.264;43.898;2022-07-29T02:39:19;100378.53;;;21.22;58.54
70323;BME280;57735;56.264;43.898;2022-07-29T02:41:54;100383.13;;;21.21;58.98
70323;BME280;57735;56.264;43.898;2022-07-29T02:44:28;100370.78;;;21.26;58.96
70323;BME280;57735;56.264;43.898;2022-07-29T02:50:23;100380.63;;;21.45;58.00
70323;BME280;57735;56.264;43.898;2022-07-29T02:53:09;100379.41;;;21.59;57.62
70323;BME280;57735;56.264;43.898;2022-07-29T02:55:46;100385.50;;;21.73;57.47
70323;BME280;57735;56.264;43.898;2022-07-29T03:00:51;100379.34;;;22.02;56.73
70323;BME280;57735;56.264;43.898;2022-07-29T03:03:26;100372.66;;;22.16;56.64
70323;BME280;57735;56.264;43.898;2022-07-29T03:06:01;100376.28;;;22.28;55.99
70323;BME280;57735;56.264;43.898;2022-07-29T03:08:36;100377.22;;;22.34;55.63
70323;BME280;57735;56.264;43.898;2022-07-29T03:11:07;100380.47;;;22.43;55.70
70323;BME280;57735;56.264;43.898;2022-07-29T03:13:41;100379.44;;;22.55;55.70
70323;BME280;57735;56.264;43.898;2022-07-29T03:16:13;100376.13;;;22.65;55.78
70323;BME280;57735;56.264;43.898;2022-07-29T03:18:45;100375.81;;;22.73;55.98
70323;BME280;57735;56.264;43.898;2022-07-29T03:21:19;100370.28;;;22.80;56.08
70323;BME280;57735;56.264;43.898;2022-07-29T03:23:50;100372.06;;;22.86;55.86
70323;BME280;57735;56.264;43.898;2022-07-29T03:26:21;100368.91;;;22.89;56.17
70323;BME280;57735;56.264;43.898;2022-07-29T03:28:51;100379.91;;;22.94;56.24
70323;BME280;57735;56.264;43.898;2022-07-29T03:31:31;100375.63;;;22.98;56.39
70323;BME280;57735;56.264;43.898;2022-07-29T03:34:04;100377.41;;;23.04;56.34
70323;BME280;57735;56.264;43.898;2022-07-29T03:36:35;100376.25;;;23.12;56.80
70323;BME280;57735;56.264;43.898;2022-07-29T03:39:07;100375.06;;;23.19;56.76
70323;BME280;57735;56.264;43.898;2022-07-29T03:41:40;100383.94;;;23.26;56.65
70323;BME280;57735;56.264;43.898;2022-07-29T03:44:13;100368.78;;;23.30;56.13
70323;BME280;57735;56.264;43.898;2022-07-29T03:46:49;100364.28;;;23.36;56.34
70323;BME280;57735;56.264;43.898;2022-07-29T03:49:21;100360.50;;;23.37;56.37
70323;BME280;57735;56.264;43.898;2022-07-29T03:51:56;100356.50;;;23.40;56.66
70323;BME280;57735;56.264;43.898;2022-07-29T03:54:27;100365.47;;;23.40;56.80
70323;BME280;57735;56.264;43.898;2022-07-29T03:57:02;100350.56;;;23.43;56.68
70323;BME280;57735;56.264;43.898;2022-07-29T03:59:33;100361.56;;;23.48;56.67
70323;BME280;57735;56.264;43.898;2022-07-29T04:02:07;100364.53;;;23.58;56.49
70323;BME280;57735;56.264;43.898;2022-07-29T04:04:41;100360.97;;;23.69;56.25
70323;BME280;57735;56.264;43.898;2022-07-29T04:07:13;100364.75;;;23.68;56.17
70323;BME280;57735;56.264;43.898;2022-07-29T04:09:47;100357.19;;;23.70;56.17
70323;BME280;57735;56.264;43.898;2022-07-29T04:12:18;100361.44;;;23.78;55.63
70323;BME280;57735;56.264;43.898;2022-07-29T04:14:53;100363.16;;;23.95;54.95
70323;BME280;57735;56.264;43.898;2022-07-29T04:17:24;100359.22;;;24.03;54.51
70323;BME280;57735;56.264;43.898;2022-07-29T04:19:55;100359.16;;;24.15;53.93
70323;BME280;57735;56.264;43.898;2022-07-29T04:22:28;100360.56;;;24.29;53.61
70323;BME280;57735;56.264;43.898;2022-07-29T04:24:59;100363.13;;;24.35;52.95
70323;BME280;57735;56.264;43.898;2022-07-29T04:27:32;100356.47;;;24.43;52.86
70323;BME280;57735;56.264;43.898;2022-07-29T04:30:04;100360.44;;;24.52;53.08
70323;BME280;57735;56.264;43.898;2022-07-29T04:32:36;100365.16;;;24.57;53.07
70323;BME280;57735;56.264;43.898;2022-07-29T04:35:07;100355.94;;;24.75;52.26
70323;BME280;57735;56.264;43.898;2022-07-29T04:37:38;100349.88;;;24.89;52.10
70323;BME280;57735;56.264;43.898;2022-07-29T04:40:12;100344.03;;;24.97;51.88
70323;BME280;57735;56.264;43.898;2022-07-29T04:42:43;100349.06;;;24.89;51.88
70323;BME280;57735;56.264;43.898;2022-07-29T04:45:19;100360.56;;;24.91;51.83
70323;BME280;57735;56.264;43.898;2022-07-29T04:47:50;100360.72;;;25.01;51.55
70323;BME280;57735;56.264;43.898;2022-07-29T04:50:21;100363.41;;;24.96;51.38
70323;BME280;57735;56.264;43.898;2022-07-29T04:52:52;100356.41;;;24.88;51.39
70323;BME280;57735;56.264;43.898;2022-07-29T04:55:23;100370.06;;;25.05;51.11
70323;BME280;57735;56.264;43.898;2022-07-29T04:57:55;100372.69;;;25.33;50.76
70323;BME280;57735;56.264;43.898;2022-07-29T05:00:28;100375.34;;;25.45;50.46
70323;BME280;57735;56.264;43.898;2022-07-29T05:02:59;100378.69;;;25.52;50.46
70323;BME280;57735;56.264;43.898;2022-07-29T05:05:33;100382.31;;;25.58;50.43
70323;BME280;57735;56.264;43.898;2022-07-29T05:08:04;100387.97;;;25.51;50.30
70323;BME280;57735;56.264;43.898;2022-07-29T05:10:37;100382.38;;;25.24;51.01
70323;BME280;57735;56.264;43.898;2022-07-29T05:13:08;100396.28;;;25.06;52.30
70323;BME280;57735;56.264;43.898;2022-07-29T05:15:39;100409.28;;;24.70;53.79
70323;BME280;57735;56.264;43.898;2022-07-29T05:18:10;100424.66;;;24.20;57.80
70323;BME280;57735;56.264;43.898;2022-07-29T05:20:41;100414.59;;;23.57;61.09
70323;BME280;57735;56.264;43.898;2022-07-29T05:23:12;100416.56;;;23.15;63.24
70323;BME280;57735;56.264;43.898;2022-07-29T05:25:43;100424.50;;;22.75;65.00
70323;BME280;57735;56.264;43.898;2022-07-29T05:28:14;100428.84;;;22.34;66.38
70323;BME280;57735;56.264;43.898;2022-07-29T05:30:47;100428.41;;;22.01;67.61
70323;BME280;57735;56.264;43.898;2022-07-29T05:33:19;100436.41;;;21.77;68.82
70323;BME280;57735;56.264;43.898;2022-07-29T05:35:51;100425.88;;;21.63;69.47
70323;BME280;57735;56.264;43.898;2022-07-29T05:38:24;100433.94;;;21.51;69.66
70323;BME280;57735;56.264;43.898;2022-07-29T05:40:57;100430.94;;;21.41;71.30
70323;BME280;57735;56.264;43.898;2022-07-29T05:43:28;100414.78;;;21.28;72.08
70323;BME280;57735;56.264;43.898;2022-07-29T05:45:59;100419.66;;;21.12;73.40
70323;BME280;57735;56.264;43.898;2022-07-29T05:48:33;100429.56;;;20.75;74.81
70323;BME280;57735;56.264;43.898;2022-07-29T05:51:04;100434.91;;;20.50;75.74
70323;BME280;57735;56.264;43.898;2022-07-29T05:53:35;100445.38;;;20.40;77.10
70323;BME280;57735;56.264;43.898;2022-07-29T05:56:06;100463.50;;;20.33;77.69
70323;BME280;57735;56.264;43.898;2022-07-29T05:58:40;100464.59;;;20.26;78.26
70323;BME280;57735;56.264;43.898;2022-07-29T06:01:11;100470.63;;;20.21;78.90
70323;BME280;57735;56.264;43.898;2022-07-29T06:03:42;100469.81;;;20.14;78.16
70323;BME280;57735;56.264;43.898;2022-07-29T06:06:13;100448.63;;;19.98;78.97
70323;BME280;57735;56.264;43.898;2022-07-29T06:08:44;100445.13;;;19.91;79.38
70323;BME280;57735;56.264;43.898;2022-07-29T06:11:18;100447.00;;;19.83;79.89
70323;BME280;57735;56.264;43.898;2022-07-29T06:13:51;100445.16;;;19.84;79.72
70323;BME280;57735;56.264;43.898;2022-07-29T06:16:22;100429.94;;;19.83;79.79
70323;BME280;57735;56.264;43.898;2022-07-29T06:18:53;100424.75;;;19.81;79.42
70323;BME280;57735;56.264;43.898;2022-07-29T06:21:24;100443.47;;;19.83;79.62
70323;BME280;57735;56.264;43.898;2022-07-29T06:23:54;100453.25;;;19.77;79.53
70323;BME280;57735;56.264;43.898;2022-07-29T06:26:25;100468.47;;;19.78;80.07
70323;BME280;57735;56.264;43.898;2022-07-29T06:28:56;100461.38;;;19.84;80.38
70323;BME280;57735;56.264;43.898;2022-07-29T06:31:27;100462.19;;;19.91;80.70
70323;BME280;57735;56.264;43.898;2022-07-29T06:34:01;100461.53;;;19.96;81.22
70323;BME280;57735;56.264;43.898;2022-07-29T06:36:35;100450.09;;;20.00;81.05
70323;BME280;57735;56.264;43.898;2022-07-29T06:39:08;100449.25;;;20.06;81.02
70323;BME280;57735;56.264;43.898;2022-07-29T06:41:39;100451.13;;;20.06;80.90
70323;BME280;57735;56.264;43.898;2022-07-29T06:44:10;100440.53;;;19.98;80.77
70323;BME280;57735;56.264;43.898;2022-07-29T06:46:41;100444.72;;;19.94;81.01
70323;BME280;57735;56.264;43.898;2022-07-29T06:49:11;100438.06;;;19.90;80.89
70323;BME280;57735;56.264;43.898;2022-07-29T06:51:44;100443.69;;;19.88;81.40
70323;BME280;57735;56.264;43.898;2022-07-29T06:54:15;100450.97;;;19.88;81.54
70323;BME280;57735;56.264;43.898;2022-07-29T06:56:46;100456.78;;;19.84;81.29
70323;BME280;57735;56.264;43.898;2022-07-29T06:59:17;100464.91;;;19.84;81.42
70323;BME280;57735;56.264;43.898;2022-07-29T07:01:50;100464.28;;;19.82;81.28
70323;BME280;57735;56.264;43.898;2022-07-29T07:04:23;100458.47;;;19.79;81.26
70323;BME280;57735;56.264;43.898;2022-07-29T07:06:54;100463.69;;;19.74;81.62
70323;BME280;57735;56.264;43.898;2022-07-29T07:09:26;100463.91;;;19.72;81.72
70323;BME280;57735;56.264;43.898;2022-07-29T07:11:56;100473.91;;;19.72;81.87
70323;BME280;57735;56.264;43.898;2022-07-29T07:14:27;100478.69;;;19.76;82.14
70323;BME280;57735;56.264;43.898;2022-07-29T07:16:58;100479.72;;;19.75;81.84
70323;BME280;57735;56.264;43.898;2022-07-29T07:19:30;100478.88;;;19.75;82.00
70323;BME280;57735;56.264;43.898;2022-07-29T07:22:01;100479.72;;;19.75;82.19
70323;BME280;57735;56.264;43.898;2022-07-29T07:24:32;100474.09;;;19.77;83.03
70323;BME280;57735;56.264;43.898;2022-07-29T07:27:03;100477.84;;;19.76;83.11
70323;BME280;57735;56.264;43.898;2022-07-29T07:29:34;100481.97;;;19.78;83.20
70323;BME280;57735;56.264;43.898;2022-07-29T07:32:05;100491.13;;;19.84;83.03
70323;BME280;57735;56.264;43.898;2022-07-29T07:34:39;100511.53;;;19.86;82.59
70323;BME280;57735;56.264;43.898;2022-07-29T07:37:12;100518.81;;;19.86;82.06
70323;BME280;57735;56.264;43.898;2022-07-29T07:39:43;100510.69;;;19.86;82.07
70323;BME280;57735;56.264;43.898;2022-07-29T07:42:13;100510.50;;;19.88;81.59
70323;BME280;57735;56.264;43.898;2022-07-29T07:44:45;100499.66;;;19.88;81.63
70323;BME280;57735;56.264;43.898;2022-07-29T07:47:19;100498.22;;;19.85;81.66
70323;BME280;57735;56.264;43.898;2022-07-29T07:49:54;100512.16;;;19.89;82.27
70323;BME280;57735;56.264;43.898;2022-07-29T07:52:25;100522.56;;;19.92;82.45
70323;BME280;57735;56.264;43.898;2022-07-29T07:54:56;100520.47;;;19.94;82.45
70323;BME280;57735;56.264;43.898;2022-07-29T07:57:27;100512.56;;;19.92;81.92
70323;BME280;57735;56.264;43.898;2022-07-29T07:59:57;100499.47;;;19.89;82.01
70323;BME280;57735;56.264;43.898;2022-07-29T08:02:31;100488.44;;;19.84;81.99
70323;BME280;57735;56.264;43.898;2022-07-29T08:05:14;100484.91;;;19.83;82.55
70323;BME280;57735;56.264;43.898;2022-07-29T08:07:47;100482.19;;;19.83;83.28
70323;BME280;57735;56.264;43.898;2022-07-29T08:10:19;100492.19;;;19.90;83.42
70323;BME280;57735;56.264;43.898;2022-07-29T08:13:09;100496.13;;;19.87;83.19
70323;BME280;57735;56.264;43.898;2022-07-29T08:15:42;100500.50;;;19.88;83.02
70323;BME280;57735;56.264;43.898;2022-07-29T08:18:15;100509.25;;;19.90;82.70
70323;BME280;57735;56.264;43.898;2022-07-29T08:20:45;100514.63;;;20.10;82.76
70323;BME280;57735;56.264;43.898;2022-07-29T08:23:16;100522.00;;;20.47;81.60
70323;BME280;57735;56.264;43.898;2022-07-29T08:25:49;100515.56;;;20.86;79.49
70323;BME280;57735;56.264;43.898;2022-07-29T08:28:20;100508.78;;;21.02;78.01
70323;BME280;57735;56.264;43.898;2022-07-29T08:30:52;100514.63;;;20.99;78.60
70323;BME280;57735;56.264;43.898;2022-07-29T08:33:23;100510.53;;;20.90;79.01
70323;BME280;57735;56.264;43.898;2022-07-29T08:35:54;100501.00;;;20.81;79.37
70323;BME280;57735;56.264;43.898;2022-07-29T08:38:25;100483.75;;;20.75;79.07
70323;BME280;57735;56.264;43.898;2022-07-29T08:40:56;100478.34;;;20.69;79.85
70323;BME280;57735;56.264;43.898;2022-07-29T08:43:30;100475.44;;;20.64;79.73
70323;BME280;57735;56.264;43.898;2022-07-29T08:46:02;100460.69;;;20.60;79.88
70323;BME280;57735;56.264;43.898;2022-07-29T08:48:36;100455.84;;;20.68;80.43
70323;BME280;57735;56.264;43.898;2022-07-29T08:51:16;100452.50;;;20.73;80.22
70323;BME280;57735;56.264;43.898;2022-07-29T08:53:49;100432.25;;;20.75;79.76
70323;BME280;57735;56.264;43.898;2022-07-29T08:56:21;100435.13;;;20.80;79.64
70323;BME280;57735;56.264;43.898;2022-07-29T08:58:54;100419.69;;;20.81;79.58
70323;BME280;57735;56.264;43.898;2022-07-29T09:01:37;100413.91;;;20.77;79.21
70323;BME280;57735;56.264;43.898;2022-07-29T09:04:29;100412.81;;;20.78;79.24
70323;BME280;57735;56.264;43.898;2022-07-29T09:07:23;100411.63;;;20.99;79.23
70323;BME280;57735;56.264;43.898;2022-07-29T09:09:54;100407.53;;;21.15;78.29
70323;BME280;57735;56.264;43.898;2022-07-29T09:12:29;100421.03;;;21.28;77.96
70323;BME280;57735;56.264;43.898;2022-07-29T09:15:00;100414.88;;;21.39;77.74
70323;BME280;57735;56.264;43.898;2022-07-29T09:17:48;100437.94;;;21.48;77.45
70323;BME280;57735;56.264;43.898;2022-07-29T09:20:20;100447.69;;;21.56;76.85
70323;BME280;57735;56.264;43.898;2022-07-29T09:22:54;100461.41;;;21.61;76.73
70323;BME280;57735;56.264;43.898;2022-07-29T09:25:36;100466.53;;;21.69;75.70
70323;BME280;57735;56.264;43.898;2022-07-29T09:28:11;100466.16;;;21.84;75.37
70323;BME280;57735;56.264;43.898;2022-07-29T09:30:57;100455.38;;;21.95;74.80
70323;BME280;57735;56.264;43.898;2022-07-29T09:33:33;100469.38;;;22.17;73.63
70323;BME280;57735;56.264;43.898;2022-07-29T09:36:11;100473.50;;;22.38;72.74
70323;BME280;57735;56.264;43.898;2022-07-29T09:38:42;100490.22;;;22.53;72.25
70323;BME280;57735;56.264;43.898;2022-07-29T09:41:13;100505.16;;;22.62;72.06
70323;BME280;57735;56.264;43.898;2022-07-29T09:43:56;100501.91;;;22.72;72.79
70323;BME280;57735;56.264;43.898;2022-07-29T09:46:28;100513.81;;;22.71;71.83
70323;BME280;57735;56.264;43.898;2022-07-29T09:49:12;100498.81;;;22.69;71.05
70323;BME280;57735;56.264;43.898;2022-07-29T09:51:47;100500.47;;;22.70;70.26
70323;BME280;57735;56.264;43.898;2022-07-29T09:54:25;100485.22;;;22.69;70.13
70323;BME280;57735;56.264;43.898;2022-07-29T09:56:56;100489.13;;;22.73;70.56
70323;BME280;57735;56.264;43.898;2022-07-29T09:59:27;100489.59;;;22.70;71.27
70323;BME280;57735;56.264;43.898;2022-07-29T10:01:59;100497.13;;;22.68;70.44
70323;BME280;57735;56.264;43.898;2022-07-29T10:04:40;100497.47;;;22.78;70.92
70323;BME280;57735;56.264;43.898;2022-07-29T10:07:11;100500.75;;;22.80;71.01
70323;BME280;57735;56.264;43.898;2022-07-29T10:09:52;100507.09;;;22.74;71.98
70323;BME280;57735;56.264;43.898;2022-07-29T10:12:27;100504.69;;;22.66;72.40
70323;BME280;57735;56.264;43.898;2022-07-29T10:14:58;100510.00;;;22.60;73.07
70323;BME280;57735;56.264;43.898;2022-07-29T10:17:34;100506.97;;;22.50;73.04
70323;BME280;57735;56.264;43.898;2022-07-29T10:20:06;100509.28;;;22.35;73.93
70323;BME280;57735;56.264;43.898;2022-07-29T10:22:54;100515.25;;;22.25;73.57
70323;BME280;57735;56.264;43.898;2022-07-29T10:25:37;100527.59;;;22.21;74.70
70323;BME280;57735;56.264;43.898;2022-07-29T10:28:07;100524.81;;;22.10;74.96
70323;BME280;57735;56.264;43.898;2022-07-29T10:30:39;100533.06;;;21.97;75.49
70323;BME280;57735;56.264;43.898;2022-07-29T10:33:33;100540.22;;;21.91;75.69
70323;BME280;57735;56.264;43.898;2022-07-29T10:36:42;100553.50;;;21.99;75.69
70323;BME280;57735;56.264;43.898;2022-07-29T10:42:19;100553.47;;;21.81;76.95
70323;BME280;57735;56.264;43.898;2022-07-29T10:44:54;100551.88;;;21.73;77.27
70323;BME280;57735;56.264;43.898;2022-07-29T10:47:26;100552.09;;;21.72;77.73
70323;BME280;57735;56.264;43.898;2022-07-29T10:50:02;100556.47;;;21.73;77.93
70323;BME280;57735;56.264;43.898;2022-07-29T10:55:37;100564.59;;;21.73;78.17
70323;BME280;57735;56.264;43.898;2022-07-29T10:58:17;100564.00;;;21.71;78.43
70323;BME280;57735;56.264;43.898;2022-07-29T11:00:52;100555.06;;;21.64;78.34
70323;BME280;57735;56.264;43.898;2022-07-29T11:03:48;100563.00;;;21.65;78.38
70323;BME280;57735;56.264;43.898;2022-07-29T11:07:06;100557.34;;;21.67;78.00
70323;BME280;57735;56.264;43.898;2022-07-29T11:09:39;100552.75;;;21.67;77.53
70323;BME280;57735;56.264;43.898;2022-07-29T11:12:52;100551.78;;;21.62;76.85
70323;BME280;57735;56.264;43.898;2022-07-29T11:15:22;100549.28;;;21.60;76.31
70323;BME280;57735;56.264;43.898;2022-07-29T11:23:29;100546.34;;;21.62;77.27
70323;BME280;57735;56.264;43.898;2022-07-29T11:31:43;100560.69;;;21.44;77.02
70323;BME280;57735;56.264;43.898;2022-07-29T11:34:29;100557.28;;;21.48;77.05
70323;BME280;57735;56.264;43.898;2022-07-29T11:45:19;100555.81;;;21.52;76.43
70323;BME280;57735;56.264;43.898;2022-07-29T11:47:55;100550.59;;;21.51;77.24
70323;BME280;57735;56.264;43.898;2022-07-29T11:50:34;100545.16;;;21.51;77.57
70323;BME280;57735;56.264;43.898;2022-07-29T11:53:13;100550.16;;;21.54;77.29
70323;BME280;57735;56.264;43.898;2022-07-29T11:55:44;100542.56;;;21.63;77.45
70323;BME280;57735;56.264;43.898;2022-07-29T11:58:21;100542.81;;;21.61;77.73
70323;BME280;57735;56.264;43.898;2022-07-29T12:00:53;100553.19;;;21.64;77.87
70323;BME280;57735;56.264;43.898;2022-07-29T12:03:28;100549.66;;;21.64;77.64
70323;BME280;57735;56.264;43.898;2022-07-29T12:05:59;100544.59;;;21.67;77.34
70323;BME280;57735;56.264;43.898;2022-07-29T12:08:40;100540.41;;;21.71;77.30
70323;BME280;57735;56.264;43.898;2022-07-29T12:11:18;100539.97;;;21.74;76.96
70323;BME280;57735;56.264;43.898;2022-07-29T12:13:51;100540.72;;;21.81;76.60
70323;BME280;57735;56.264;43.898;2022-07-29T12:16:22;100546.53;;;21.85;76.27
70323;BME280;57735;56.264;43.898;2022-07-29T12:19:02;100541.50;;;21.88;75.78
70323;BME280;57735;56.264;43.898;2022-07-29T12:21:53;100545.78;;;22.03;75.52
70323;BME280;57735;56.264;43.898;2022-07-29T12:24:43;100536.88;;;22.14;74.57
70323;BME280;57735;56.264;43.898;2022-07-29T12:27:17;100536.59;;;22.22;74.51
70323;BME280;57735;56.264;43.898;2022-07-29T12:30:04;100529.88;;;22.24;74.60
70323;BME280;57735;56.264;43.898;2022-07-29T12:32:41;100532.28;;;22.33;74.55
70323;BME280;57735;56.264;43.898;2022-07-29T12:35:15;100531.97;;;22.41;74.17
70323;BME280;57735;56.264;43.898;2022-07-29T12:37:48;100535.91;;;22.45;73.83
70323;BME280;57735;56.264;43.898;2022-07-29T12:40:21;100532.28;;;22.51;73.66
70323;BME280;57735;56.264;43.898;2022-07-29T12:45:43;100531.63;;;22.85;71.77
70323;BME280;57735;56.264;43.898;2022-07-29T12:48:16;100532.28;;;22.99;71.21
70323;BME280;57735;56.264;43.898;2022-07-29T12:50:56;100527.59;;;23.06;71.12
70323;BME280;57735;56.264;43.898;2022-07-29T12:53:27;100525.56;;;23.13;70.39
70323;BME280;57735;56.264;43.898;2022-07-29T12:55:59;100513.53;;;23.21;70.12
70323;BME280;57735;56.264;43.898;2022-07-29T12:58:38;100512.97;;;23.30;69.73
70323;BME280;57735;56.264;43.898;2022-07-29T13:01:15;100518.69;;;23.41;69.08
70323;BME280;57735;56.264;43.898;2022-07-29T13:03:56;100513.38;;;23.46;68.08
70323;BME280;57735;56.264;43.898;2022-07-29T13:09:16;100517.78;;;23.70;68.42
70323;BME280;57735;56.264;43.898;2022-07-29T13:11:49;100523.72;;;23.79;69.00
70323;BME280;57735;56.264;43.898;2022-07-29T13:14:41;100522.88;;;23.78;68.92
70323;BME280;57735;56.264;43.898;2022-07-29T13:17:17;100526.19;;;23.80;69.31
70323;BME280;57735;56.264;43.898;2022-07-29T13:19:52;100533.28;;;23.81;70.09
70323;BME280;57735;56.264;43.898;2022-07-29T13:22:24;100529.41;;;23.77;68.28
70323;BME280;57735;56.264;43.898;2022-07-29T13:25:01;100531.28;;;23.77;68.65
70323;BME280;57735;56.264;43.898;2022-07-29T13:27:37;100527.75;;;23.76;69.19
70323;BME280;57735;56.264;43.898;2022-07-29T13:30:09;100526.31;;;23.74;70.02
70323;BME280;57735;56.264;43.898;2022-07-29T13:32:40;100530.56;;;23.70;70.54
70323;BME280;57735;56.264;43.898;2022-07-29T13:35:10;100531.41;;;23.70;70.28
70323;BME280;57735;56.264;43.898;2022-07-29T13:37:42;100526.66;;;23.65;69.88
70323;BME280;57735;56.264;43.898;2022-07-29T13:40:15;100538.97;;;23.56;69.42
70323;BME280;57735;56.264;43.898;2022-07-29T13:42:46;100541.16;;;23.48;69.61
70323;BME280;57735;56.264;43.898;2022-07-29T13:45:17;100545.06;;;23.40;70.28
70323;BME280;57735;56.264;43.898;2022-07-29T13:47:50;100546.44;;;23.31;70.73
70323;BME280;57735;56.264;43.898;2022-07-29T13:50:21;100549.66;;;23.28;70.46
70323;BME280;57735;56.264;43.898;2022-07-29T13:52:55;100543.25;;;23.22;69.68
70323;BME280;57735;56.264;43.898;2022-07-29T13:55:25;100544.53;;;23.20;69.40
70323;BME280;57735;56.264;43.898;2022-07-29T13:57:56;100545.97;;;23.22;70.23
70323;BME280;57735;56.264;43.898;2022-07-29T14:00:27;100547.63;;;23.23;70.51
70323;BME280;57735;56.264;43.898;2022-07-29T14:02:58;100553.97;;;23.17;70.85
70323;BME280;57735;56.264;43.898;2022-07-29T14:05:29;100553.03;;;23.12;70.89
70323;BME280;57735;56.264;43.898;2022-07-29T14:07:59;100561.66;;;23.09;71.45